Time;durP1;ratioP1;P1;durP2;ratioP2;P2;SDS_P1;SDS_P2;PMS_P1;PMS_P2;Temp;Humidity;BMP_temperature;BMP_pressure;BME280_temperature;BME280_humidity;BME280_pressure;Samples;Min_cycle;Max_cycle;Signal;HPM_P1;HPM_P2
2022/05/16 00:01:05;;;;;;;7.75;5.00;;;;;;;17.17;57.17;100678.22;4948091;29;20055;-83
2022/05/16 00:03:32;;;;;;;6.82;4.90;;;;;;;17.21;55.97;100671.53;4947356;29;20110;-84
2022/05/16 00:05:59;;;;;;;7.82;5.00;;;;;;;17.16;55.88;100671.31;4949462;29;20047;-83
2022/05/16 00:08:28;;;;;;;8.90;5.25;;;;;;;17.13;55.99;100676.19;4946636;29;20112;-82
2022/05/16 00:10:58;;;;;;;8.35;5.40;;;;;;;17.15;55.99;100668.88;4947310;29;20054;-83
2022/05/16 00:13:25;;;;;;;10.38;5.22;;;;;;;17.16;55.75;100671.31;4945873;29;20112;-84
2022/05/16 00:15:52;;;;;;;13.00;4.93;;;;;;;17.10;56.12;100666.00;4947087;29;20055;-83
2022/05/16 00:18:19;;;;;;;6.85;4.68;;;;;;;17.08;56.42;100668.03;4945226;29;20060;-82
2022/05/16 00:20:46;;;;;;;9.32;5.20;;;;;;;17.06;56.29;100668.22;4946710;29;20048;-81
2022/05/16 00:23:12;;;;;;;7.50;4.82;;;;;;;17.12;56.26;100667.44;4946910;29;20056;-83
2022/05/16 00:25:39;;;;;;;11.90;4.90;;;;;;;17.15;55.93;100669.69;4947062;29;20115;-83
2022/05/16 00:28:07;;;;;;;9.15;4.70;;;;;;;17.15;56.05;100669.69;4945458;29;20135;-83
2022/05/16 00:30:34;;;;;;;10.20;5.07;;;;;;;17.11;56.18;100664.97;4945882;29;20076;-83
2022/05/16 00:33:01;;;;;;;8.75;4.80;;;;;;;17.10;56.29;100655.41;4946243;29;20052;-81
2022/05/16 00:35:27;;;;;;;8.88;5.50;;;;;;;17.03;56.35;100658.03;4946440;29;20102;-82
2022/05/16 00:37:54;;;;;;;8.50;4.60;;;;;;;16.95;56.69;100662.69;4945631;29;20134;-83
2022/05/16 00:40:21;;;;;;;7.93;5.03;;;;;;;16.88;57.10;100655.56;4946360;29;20056;-83
2022/05/16 00:42:48;;;;;;;8.85;4.95;;;;;;;16.89;56.73;100653.72;4948303;29;20048;-83
2022/05/16 00:45:18;;;;;;;10.10;5.28;;;;;;;16.89;56.76;100654.53;4945406;29;20102;-82
2022/05/16 00:47:44;;;;;;;10.13;5.00;;;;;;;16.85;56.93;100658.59;4947963;29;20071;-81
2022/05/16 00:50:13;;;;;;;13.75;5.60;;;;;;;16.76;57.19;100653.66;4945920;29;20063;-85
2022/05/16 00:52:44;;;;;;;12.60;5.28;;;;;;;16.74;57.50;100648.56;4946453;29;20194;-82
2022/05/16 00:55:14;;;;;;;7.05;4.57;;;;;;;16.72;57.47;100653.22;4945107;29;20052;-83
2022/05/16 00:57:44;;;;;;;8.90;4.80;;;;;;;16.66;57.62;100646.06;4945844;29;20482;-82
2022/05/16 01:00:14;;;;;;;9.13;4.93;;;;;;;16.65;57.76;100651.56;4945134;29;20048;-81
2022/05/16 01:05:31;;;;;;;7.30;4.70;;;;;;;16.64;57.64;100645.47;4945273;29;20501;-81
2022/05/16 01:08:02;;;;;;;7.57;4.88;;;;;;;16.55;58.55;100638.66;4944887;29;20135;-82
2022/05/16 01:10:29;;;;;;;9.55;5.13;;;;;;;16.59;58.65;100645.19;4963861;23;20157;-78
2022/05/16 01:12:56;;;;;;;9.90;5.70;;;;;;;16.56;58.94;100645.56;4957171;28;20070;-79
2022/05/16 01:15:30;;;;;;;10.18;5.43;;;;;;;16.42;59.52;100643.88;4957361;28;20057;-79
2022/05/16 01:17:58;;;;;;;10.70;5.55;;;;;;;16.37;59.50;100633.09;4957655;28;20059;-79
2022/05/16 01:20:36;;;;;;;9.32;5.20;;;;;;;16.39;59.82;100641.63;4957857;28;20050;-79
2022/05/16 01:23:04;;;;;;;10.68;5.70;;;;;;;16.26;60.39;100637.88;4958674;28;20462;-80
2022/05/16 01:25:30;;;;;;;8.68;5.35;;;;;;;16.31;59.73;100633.84;4958332;28;20134;-79
2022/05/16 01:27:59;;;;;;;12.68;6.38;;;;;;;16.25;60.66;100640.72;4956391;28;20047;-78
2022/05/16 01:30:29;;;;;;;7.70;5.30;;;;;;;16.22;60.49;100639.28;4957835;28;20138;-80
2022/05/16 01:32:55;;;;;;;9.38;5.47;;;;;;;16.22;60.28;100635.81;4961561;28;20154;-79
2022/05/16 01:35:25;;;;;;;8.50;5.00;;;;;;;16.16;61.25;100639.22;4954415;28;20062;-79
2022/05/16 01:40:34;;;;;;;9.27;5.28;;;;;;;16.11;61.00;100639.81;4944364;28;20119;-80
2022/05/16 01:43:01;;;;;;;8.43;5.35;;;;;;;16.06;61.46;100636.94;4958535;28;20077;-79
2022/05/16 01:45:28;;;;;;;10.00;5.28;;;;;;;16.03;60.61;100642.59;4957064;28;20054;-79
2022/05/16 01:47:54;;;;;;;9.45;5.53;;;;;;;16.05;61.04;100635.31;4956965;28;20235;-80
2022/05/16 01:50:21;;;;;;;8.30;6.03;;;;;;;16.04;60.79;100627.59;4956778;28;20079;-79
2022/05/16 01:52:48;;;;;;;7.20;5.57;;;;;;;16.08;60.58;100634.91;4957433;28;20171;-79
2022/05/16 01:55:15;;;;;;;8.88;5.97;;;;;;;16.09;60.94;100628.63;4956788;28;20077;-79
2022/05/16 01:57:43;;;;;;;11.32;5.82;;;;;;;16.02;61.35;100634.88;4956578;28;20069;-77
2022/05/16 02:00:13;;;;;;;9.70;5.35;;;;;;;16.02;61.23;100632.25;4956268;28;20051;-79
2022/05/16 02:02:42;;;;;;;8.60;5.82;;;;;;;15.95;61.97;100632.19;4956709;28;20138;-79
2022/05/16 02:05:10;;;;;;;9.77;6.85;;;;;;;15.91;61.97;100628.28;4957358;28;20473;-79
2022/05/16 02:07:37;;;;;;;9.07;5.47;;;;;;;15.91;61.81;100623.00;4957391;28;20065;-79
2022/05/16 02:10:05;;;;;;;8.65;6.18;;;;;;;15.91;61.90;100625.66;4956828;28;20062;-80
2022/05/16 02:12:33;;;;;;;12.85;5.78;;;;;;;15.88;61.63;100618.13;4957167;28;20047;-79
2022/05/16 02:15:01;;;;;;;8.82;5.95;;;;;;;15.93;61.26;100621.00;4956969;28;20055;-80
2022/05/16 02:17:27;;;;;;;9.52;5.85;;;;;;;15.91;61.27;100599.25;4956789;28;20047;-79
2022/05/16 02:19:54;;;;;;;10.00;5.78;;;;;;;15.82;61.84;100611.78;4955577;28;20047;-80
2022/05/16 02:25:05;;;;;;;10.13;6.55;;;;;;;15.59;62.93;100595.34;4956794;29;20410;-79
2022/05/16 02:27:32;;;;;;;7.85;6.13;;;;;;;15.50;63.23;100602.53;4956221;28;20142;-79
2022/05/16 02:29:59;;;;;;;10.75;6.10;;;;;;;15.49;63.20;100598.28;4954696;28;20086;-80
2022/05/16 02:32:27;;;;;;;10.25;6.18;;;;;;;15.44;63.61;100595.38;4955909;28;20090;-79
2022/05/16 02:34:53;;;;;;;12.98;5.97;;;;;;;15.42;63.58;100592.13;4954844;28;20082;-79
2022/05/16 02:37:20;;;;;;;11.80;6.30;;;;;;;15.37;63.80;100597.13;4955731;28;20047;-79
2022/05/16 02:39:47;;;;;;;10.30;6.00;;;;;;;15.40;64.47;100588.03;4954230;28;20421;-78
2022/05/16 02:42:15;;;;;;;9.55;6.47;;;;;;;15.40;64.20;100588.03;4956276;28;20054;-79
2022/05/16 02:44:41;;;;;;;9.38;6.10;;;;;;;15.36;64.15;100592.88;4956496;28;20051;-79
2022/05/16 02:47:09;;;;;;;10.18;5.95;;;;;;;15.35;64.29;100593.88;4956080;28;20054;-79
2022/05/16 02:49:37;;;;;;;7.88;6.05;;;;;;;15.33;64.76;100593.25;4955778;28;20051;-81
2022/05/16 02:52:05;;;;;;;15.30;6.35;;;;;;;15.38;64.21;100590.03;4956707;28;20138;-79
2022/05/16 02:54:32;;;;;;;9.30;6.60;;;;;;;15.31;64.49;100584.69;4957003;28;20570;-80
2022/05/16 02:56:59;;;;;;;12.95;6.20;;;;;;;15.31;64.65;100578.63;4957527;28;20112;-80
2022/05/16 02:59:27;;;;;;;11.73;6.50;;;;;;;15.28;64.80;100570.06;4957172;28;20059;-80
2022/05/16 03:01:53;;;;;;;7.25;5.72;;;;;;;15.21;65.06;100573.66;4958166;28;20051;-79
2022/05/16 03:04:20;;;;;;;8.88;6.45;;;;;;;15.22;65.27;100575.28;4958940;28;20048;-79
2022/05/16 03:06:48;;;;;;;9.10;6.20;;;;;;;15.15;65.65;100571.75;4963033;28;20047;-79
2022/05/16 03:09:15;;;;;;;9.07;6.57;;;;;;;15.15;65.60;100566.47;4957550;28;20083;-79
2022/05/16 03:11:41;;;;;;;9.52;6.53;;;;;;;15.19;65.52;100571.19;4958111;28;20146;-80
2022/05/16 03:14:08;;;;;;;10.25;5.60;;;;;;;15.19;65.70;100570.38;4956690;28;20142;-79
2022/05/16 03:16:36;;;;;;;10.60;6.20;;;;;;;15.12;65.88;100564.25;4956989;28;20051;-79
2022/05/16 03:19:02;;;;;;;9.65;5.63;;;;;;;15.12;65.93;100565.03;4957179;28;20071;-79
2022/05/16 03:21:30;;;;;;;11.60;6.15;;;;;;;15.08;66.20;100558.53;4957122;28;20540;-79
2022/05/16 03:23:58;;;;;;;9.60;5.90;;;;;;;15.12;65.99;100565.03;4957091;28;20066;-79
2022/05/16 03:26:25;;;;;;;13.73;7.43;;;;;;;15.15;66.05;100571.75;4956976;28;20138;-78
2022/05/16 03:28:52;;;;;;;9.70;5.97;;;;;;;15.06;67.12;100576.34;4956006;28;20114;-79
2022/05/16 03:31:19;;;;;;;8.80;6.40;;;;;;;14.95;67.60;100576.84;4956923;28;20093;-79
2022/05/16 03:33:45;;;;;;;10.50;6.35;;;;;;;15.01;66.91;100568.19;4957189;28;20043;-78
2022/05/16 03:36:12;;;;;;;8.65;5.82;;;;;;;15.05;66.46;100560.72;4957217;28;20082;-80
2022/05/16 03:41:24;;;;;;;10.68;6.15;;;;;;;15.04;67.34;100581.00;4956069;29;20202;-78
2022/05/16 03:43:53;;;;;;;10.95;6.15;;;;;;;15.10;66.56;100576.81;4955469;28;20058;-78
2022/05/16 03:46:19;;;;;;;11.05;6.10;;;;;;;15.15;66.41;100566.47;4954334;28;20074;-77
2022/05/16 03:48:46;;;;;;;9.15;6.03;;;;;;;15.17;66.25;100570.56;4952441;28;20054;-78
2022/05/16 03:51:14;;;;;;;10.75;6.65;;;;;;;15.13;66.45;100563.22;4954238;28;20051;-78
2022/05/16 03:53:46;;;;;;;9.35;5.85;;;;;;;15.12;66.63;100565.03;4954407;28;20058;-78
2022/05/16 03:56:13;;;;;;;9.95;6.50;;;;;;;15.15;66.41;100553.31;4955187;28;20059;-79
2022/05/16 03:58:41;;;;;;;14.55;6.70;;;;;;;15.20;66.17;100545.66;4954092;28;20059;-78
2022/05/16 04:01:08;;;;;;;13.75;6.68;;;;;;;15.29;66.07;100549.81;4954494;28;20514;-78
2022/05/16 04:03:35;;;;;;;10.57;6.18;;;;;;;15.37;65.63;100549.69;4958422;28;20059;-78
2022/05/16 04:06:02;;;;;;;10.07;5.63;;;;;;;15.40;66.20;100551.13;4956014;28;20165;-77
2022/05/16 04:08:29;;;;;;;11.40;6.45;;;;;;;15.51;65.48;100555.91;4955656;28;20051;-78
2022/05/16 04:10:56;;;;;;;9.77;5.97;;;;;;;15.62;65.01;100554.56;4957145;28;20110;-79
2022/05/16 04:13:23;;;;;;;11.68;6.05;;;;;;;15.76;64.74;100553.69;4957702;28;20059;-80
2022/05/16 04:15:51;;;;;;;14.13;6.57;;;;;;;15.88;64.60;100557.44;4956477;28;20077;-78
2022/05/16 04:18:19;;;;;;;12.77;6.45;;;;;;;16.02;64.18;100559.16;4956255;28;20051;-80
2022/05/16 04:20:45;;;;;;;11.65;6.30;;;;;;;16.18;63.55;100560.66;4957406;28;20116;-77
2022/05/16 04:23:12;;;;;;;9.48;6.05;;;;;;;16.30;63.38;100563.56;4957407;28;20552;-79
2022/05/16 04:25:39;;;;;;;13.60;5.72;;;;;;;16.31;63.50;100566.03;4957775;28;20061;-79
2022/05/16 04:28:06;;;;;;;15.15;6.68;;;;;;;16.64;62.94;100568.84;4957894;28;20130;-79
2022/05/16 04:30:32;;;;;;;9.95;6.53;;;;;;;16.75;62.26;100568.28;4960261;28;20066;-79
2022/05/16 04:33:01;;;;;;;10.60;5.95;;;;;;;16.74;62.39;100569.28;4959299;28;20685;-78
2022/05/16 04:35:29;;;;;;;8.45;6.25;;;;;;;16.58;62.91;100561.66;4968598;28;20130;-81
2022/05/16 04:37:55;;;;;;;17.00;6.80;;;;;;;16.55;62.85;100560.22;4960979;28;20086;-80
2022/05/16 04:40:22;;;;;;;13.30;5.90;;;;;;;16.82;61.88;100553.28;4959297;28;20086;-80
2022/05/16 04:42:48;;;;;;;10.93;6.15;;;;;;;17.03;61.47;100554.13;4959252;28;20090;-79
2022/05/16 04:45:17;;;;;;;11.55;7.88;;;;;;;17.15;60.77;100563.09;4960432;28;20075;-79
2022/05/16 04:47:46;;;;;;;12.15;5.97;;;;;;;17.08;61.18;100562.28;4961915;28;20078;-80
2022/05/16 04:50:17;;;;;;;10.45;6.20;;;;;;;17.05;61.61;100554.72;4961988;28;20103;-79
2022/05/16 04:52:43;;;;;;;11.23;6.28;;;;;;;17.46;60.72;100549.31;4964266;28;20182;-80
2022/05/16 04:55:10;;;;;;;8.88;5.82;;;;;;;17.39;61.43;100546.66;4965263;28;20266;-78
2022/05/16 04:57:37;;;;;;;9.75;6.32;;;;;;;17.68;60.71;100548.13;4965264;28;20067;-79
2022/05/16 05:00:23;;;;;;;9.10;6.03;;;;;;;18.00;59.21;100556.22;4963424;28;20051;-80
2022/05/16 05:02:50;;;;;;;11.05;5.68;;;;;;;18.10;59.11;100541.53;4962713;28;20051;-79
2022/05/16 05:05:19;;;;;;;12.13;6.25;;;;;;;18.01;58.91;100548.06;4965056;28;20099;-79
2022/05/16 05:07:46;;;;;;;15.65;5.97;;;;;;;18.17;58.91;100565.38;4964752;28;20126;-80
2022/05/16 05:15:44;;;;;;;23.52;7.20;;;;;;;17.94;60.36;100563.19;4970265;28;20116;-80
2022/05/16 05:18:11;;;;;;;10.93;5.53;;;;;;;17.96;60.11;100563.75;4969670;28;20058;-80
2022/05/16 05:20:39;;;;;;;11.45;5.97;;;;;;;17.84;60.66;100562.78;4961105;28;20459;-80
2022/05/16 05:23:06;;;;;;;7.40;5.75;;;;;;;17.68;61.15;100558.72;4959027;28;20075;-80
2022/05/16 05:25:33;;;;;;;13.35;5.65;;;;;;;17.75;61.29;100558.72;4958261;28;20340;-80
2022/05/16 05:28:01;;;;;;;15.13;6.03;;;;;;;17.76;61.44;100566.44;4958400;28;20119;-79
2022/05/16 05:30:30;;;;;;;25.35;7.05;;;;;;;17.57;61.91;100560.09;4957613;28;20051;-79
2022/05/16 05:32:57;;;;;;;29.67;7.20;;;;;;;17.50;62.02;100561.91;4958665;28;20059;-79
2022/05/16 05:35:24;;;;;;;34.35;7.45;;;;;;;17.43;62.72;100563.78;4959546;28;20075;-80
2022/05/16 05:37:55;;;;;;;21.38;6.60;;;;;;;17.42;62.76;100574.56;4958269;28;20158;-79
2022/05/16 05:40:22;;;;;;;21.92;6.82;;;;;;;17.51;62.37;100579.41;4957898;28;20113;-79
2022/05/16 05:42:50;;;;;;;17.38;7.22;;;;;;;17.61;62.47;100575.56;4958226;28;20051;-79
2022/05/16 05:45:17;;;;;;;19.67;6.35;;;;;;;17.67;62.10;100580.06;4958012;28;20058;-79
2022/05/16 05:47:43;;;;;;;15.63;6.32;;;;;;;17.58;62.13;100585.53;4958348;28;20058;-79
2022/05/16 05:50:11;;;;;;;12.75;6.18;;;;;;;17.53;62.81;100585.31;4958748;28;20052;-79
2022/05/16 05:52:38;;;;;;;12.27;5.70;;;;;;;17.48;62.63;100579.03;4955600;28;20502;-78
2022/05/16 05:55:08;;;;;;;11.02;6.00;;;;;;;17.47;62.75;100578.22;4956641;28;20043;-78
2022/05/16 05:57:35;;;;;;;9.15;5.82;;;;;;;17.55;61.94;100585.94;4957647;28;20098;-78
2022/05/16 06:00:02;;;;;;;15.93;6.35;;;;;;;17.48;62.17;100581.69;4956440;28;20051;-79
2022/05/16 06:02:29;;;;;;;16.02;6.45;;;;;;;17.43;62.57;100600.81;4956214;28;20531;-78
2022/05/16 06:04:56;;;;;;;15.18;5.93;;;;;;;17.49;62.68;100605.25;4956820;28;20166;-78
2022/05/16 06:07:23;;;;;;;10.82;5.78;;;;;;;17.51;62.57;100605.88;4956031;28;20114;-79
2022/05/16 06:09:49;;;;;;;11.35;6.65;;;;;;;17.57;62.53;100610.38;4956398;28;20059;-78
2022/05/16 06:12:17;;;;;;;15.07;6.63;;;;;;;17.66;62.48;100616.31;4959362;28;20086;-79
2022/05/16 06:14:44;;;;;;;14.73;6.43;;;;;;;17.66;62.24;100618.94;4958745;28;20201;-77
2022/05/16 06:17:11;;;;;;;13.13;6.38;;;;;;;17.69;61.45;100623.03;4950060;28;20067;-77
2022/05/16 06:19:38;;;;;;;10.50;5.80;;;;;;;17.63;61.62;100621.16;4951590;28;20126;-78
2022/05/16 06:22:04;;;;;;;10.88;5.93;;;;;;;17.71;61.51;100626.28;4953023;28;20058;-78
2022/05/16 06:27:15;;;;;;;16.95;6.75;;;;;;;17.56;61.96;100624.59;4946152;28;20125;-77
2022/05/16 06:29:43;;;;;;;11.38;5.72;;;;;;;17.52;61.84;100633.97;4951610;28;20047;-77
2022/05/16 06:32:09;;;;;;;10.88;6.00;;;;;;;17.41;62.52;100628.47;4952964;28;20146;-76
2022/05/16 06:34:36;;;;;;;13.70;6.55;;;;;;;17.42;63.38;100630.91;4952290;28;20129;-77
2022/05/16 06:37:03;;;;;;;13.93;6.38;;;;;;;17.47;63.22;100633.78;4952259;28;20047;-77
2022/05/16 06:39:29;;;;;;;12.45;6.50;;;;;;;17.50;62.98;100630.69;4951639;28;20093;-76
2022/05/16 06:41:56;;;;;;;14.52;7.00;;;;;;;17.74;62.97;100633.81;4952550;28;20053;-76
2022/05/16 06:44:23;;;;;;;12.27;6.53;;;;;;;17.76;62.57;100639.72;4952378;28;20047;-76
2022/05/16 06:46:51;;;;;;;15.27;6.70;;;;;;;17.75;63.08;100638.09;4952046;28;20108;-76
2022/05/16 06:49:17;;;;;;;13.60;6.70;;;;;;;17.64;63.37;100634.19;4951968;28;20062;-76
2022/05/16 06:51:44;;;;;;;15.32;6.85;;;;;;;17.56;63.50;100635.19;4954660;28;20053;-76
2022/05/16 06:54:10;;;;;;;16.15;6.60;;;;;;;17.69;63.47;100644.19;4953144;28;20078;-76
2022/05/16 06:56:37;;;;;;;12.98;6.30;;;;;;;17.83;63.65;100641.38;4952182;28;20087;-77
2022/05/16 06:59:04;;;;;;;19.38;6.95;;;;;;;17.77;63.68;100647.47;4951312;28;20052;-77
2022/05/16 07:01:30;;;;;;;11.65;6.70;;;;;;;17.78;63.60;100643.00;4951827;28;20047;-77
2022/05/16 07:03:58;;;;;;;24.58;7.07;;;;;;;17.67;64.44;100659.47;4952164;28;20153;-77
2022/05/16 07:06:25;;;;;;;29.15;7.07;;;;;;;17.75;64.41;100653.97;4952088;28;20055;-76
2022/05/16 07:08:52;;;;;;;23.50;7.18;;;;;;;17.56;65.00;100651.06;4951316;28;20175;-77
2022/05/16 07:11:18;;;;;;;27.92;8.23;;;;;;;17.52;65.79;100655.13;4952812;28;20047;-76
2022/05/16 07:13:45;;;;;;;14.57;8.00;;;;;;;17.49;66.04;100652.88;4951889;28;20058;-76
2022/05/16 07:16:11;;;;;;;14.25;6.82;;;;;;;17.48;65.90;100667.16;4952027;28;20059;-76
2022/05/16 07:18:38;;;;;;;10.65;6.60;;;;;;;17.54;65.73;100674.25;4951245;28;20052;-76
2022/05/16 07:21:07;;;;;;;23.27;6.65;;;;;;;17.48;65.90;100675.09;4951848;28;20055;-76
2022/05/16 07:23:34;;;;;;;23.65;7.57;;;;;;;17.53;65.93;100683.22;4952329;28;20055;-77
2022/05/16 07:28:45;;;;;;;16.90;6.50;;;;;;;17.39;66.04;100678.94;4951998;29;20570;-77
2022/05/16 07:31:12;;;;;;;22.98;6.80;;;;;;;17.44;66.10;100687.09;4952392;28;20496;-77
2022/05/16 07:33:39;;;;;;;10.63;6.40;;;;;;;17.55;65.90;100675.06;4952761;28;20142;-78
2022/05/16 07:36:07;;;;;;;12.85;6.82;;;;;;;17.64;65.92;100673.06;4952936;28;20142;-77
2022/05/16 07:38:34;;;;;;;15.02;6.70;;;;;;;17.57;66.26;100695.03;4955750;28;20083;-78
2022/05/16 07:41:01;;;;;;;19.77;6.95;;;;;;;17.64;67.03;100699.53;4957127;28;20134;-78
2022/05/16 07:43:28;;;;;;;11.88;6.45;;;;;;;17.66;67.09;100697.53;4955891;28;20047;-76
2022/05/16 07:45:55;;;;;;;12.73;6.80;;;;;;;17.77;67.10;100699.59;4956303;28;20077;-76
2022/05/16 07:48:22;;;;;;;14.45;7.05;;;;;;;18.05;66.53;100710.00;4955985;28;20079;-76
2022/05/16 07:50:49;;;;;;;12.18;7.05;;;;;;;18.16;66.31;100726.09;4956880;28;20130;-76
2022/05/16 07:53:18;;;;;;;14.00;7.05;;;;;;;18.32;65.47;100718.78;4957171;28;20057;-76
2022/05/16 07:55:46;;;;;;;38.28;10.32;;;;;;;18.39;65.31;100719.59;4955501;28;20063;-76
2022/05/16 07:58:13;;;;;;;19.15;7.68;;;;;;;18.26;66.21;100720.41;4955205;28;20057;-75
2022/05/16 08:00:40;;;;;;;23.08;8.07;;;;;;;18.14;66.67;100719.38;4954978;28;20138;-76
2022/05/16 08:03:10;;;;;;;28.73;8.43;;;;;;;18.23;67.19;100713.69;4955149;28;20090;-77
2022/05/16 08:05:37;;;;;;;22.50;8.35;;;;;;;18.40;66.46;100726.53;4954571;28;20158;-76
2022/05/16 08:10:49;;;;;;;27.10;8.02;;;;;;;18.56;66.25;100726.88;4954847;29;20074;-76
2022/05/16 08:13:16;;;;;;;40.85;10.23;;;;;;;18.34;66.92;100725.50;4955703;28;20097;-77
2022/05/16 08:15:43;;;;;;;19.80;8.20;;;;;;;18.58;66.26;100732.81;4955269;28;20134;-77
2022/05/16 08:18:12;;;;;;;12.35;7.00;;;;;;;18.53;65.97;100727.28;4955233;28;20055;-77
2022/05/16 08:20:42;;;;;;;18.20;7.57;;;;;;;18.52;66.15;100733.63;4954021;28;20062;-77
2022/05/16 08:23:09;;;;;;;23.90;8.43;;;;;;;18.60;65.42;100737.09;4955139;28;20142;-78
2022/05/16 08:25:36;;;;;;;13.23;6.78;;;;;;;18.79;65.08;100739.75;4955383;28;20066;-77
2022/05/16 08:28:04;;;;;;;11.30;6.63;;;;;;;18.97;64.21;100743.56;4954022;29;20137;-77
2022/05/16 08:30:31;;;;;;;19.55;7.80;;;;;;;18.86;63.93;100747.69;4954211;28;20550;-77
2022/05/16 08:33:01;;;;;;;13.50;7.10;;;;;;;18.88;64.17;100732.38;4955007;28;20059;-76
2022/05/16 08:35:28;;;;;;;15.80;6.25;;;;;;;19.26;63.12;100752.88;4954607;28;20066;-77
2022/05/16 08:40:48;;;;;;;13.70;6.40;;;;;;;19.50;61.71;100755.59;4954412;29;20090;-77
2022/05/16 08:43:19;;;;;;;16.45;6.75;;;;;;;20.09;60.20;100749.16;4954302;28;20051;-76
2022/05/16 08:45:54;;;;;;;15.40;5.97;;;;;;;20.24;59.14;100753.34;4953916;28;20136;-77
2022/05/16 08:48:25;;;;;;;18.45;7.05;;;;;;;20.25;59.42;100757.66;4953554;28;20051;-77
2022/05/16 08:50:55;;;;;;;18.73;6.40;;;;;;;20.77;58.26;100746.56;4953704;28;20066;-77
2022/05/16 08:53:27;;;;;;;16.83;6.35;;;;;;;21.26;56.41;100750.16;4954419;28;20070;-77
2022/05/16 08:55:56;;;;;;;13.70;6.20;;;;;;;21.01;56.78;100746.72;4954472;28;20389;-78
2022/05/16 08:58:33;;;;;;;19.17;7.07;;;;;;;21.75;55.19;100749.06;4953605;28;20053;-78
2022/05/16 09:01:02;;;;;;;15.73;6.40;;;;;;;22.46;53.99;100744.72;4954621;28;20394;-78
2022/05/16 09:03:40;;;;;;;12.13;6.35;;;;;;;22.68;53.80;100742.31;4955451;28;20089;-78
2022/05/16 09:06:13;;;;;;;14.88;6.30;;;;;;;22.33;53.47;100752.94;4954558;28;20247;-77
2022/05/16 09:08:43;;;;;;;;;;;;;;;23.09;52.11;100738.69;4953617;28;20794;-76
2022/05/16 09:11:15;;;;;;;12.43;5.50;;;;;;;23.13;50.82;100739.81;4953765;28;20408;-77
2022/05/16 09:13:47;;;;;;;;;;;;;;;23.13;50.98;100735.31;4954337;28;20077;-76
2022/05/16 09:16:33;;;;;;;12.10;5.55;;;;;;;23.44;51.66;100736.69;4954020;28;20013;-77
2022/05/16 09:19:11;;;;;;;9.05;5.28;;;;;;;23.85;49.67;100729.44;4953398;28;20378;-77
2022/05/16 09:21:48;;;;;;;14.05;5.80;;;;;;;23.75;49.72;100721.25;4955159;28;20169;-78
2022/05/16 09:24:19;;;;;;;11.48;6.07;;;;;;;23.73;49.92;100718.00;4954832;28;20066;-77
2022/05/16 09:26:55;;;;;;;11.68;5.82;;;;;;;23.54;50.29;100721.94;4954911;28;20043;-78
2022/05/16 09:29:28;;;;;;;15.45;5.78;;;;;;;24.22;48.28;100715.59;4953802;28;20079;-77
2022/05/16 09:32:00;;;;;;;9.55;5.30;;;;;;;24.33;48.89;100712.88;4954568;28;20427;-77
2022/05/16 09:34:27;;;;;;;;;;;;;;;24.95;46.71;100719.88;4962121;28;20066;-78
2022/05/16 09:36:53;;;;;;;19.17;5.55;;;;;;;25.68;46.43;100718.59;4974556;28;20016;-77
2022/05/16 09:39:24;;;;;;;8.48;5.00;;;;;;;25.84;44.66;100722.22;4966545;28;20099;-78
2022/05/16 09:42:03;;;;;;;10.48;5.07;;;;;;;24.71;45.13;100720.09;4946111;28;20071;-79
2022/05/16 09:44:34;;;;;;;15.75;5.38;;;;;;;25.19;45.96;100718.59;4952645;28;20086;-77
2022/05/16 09:47:22;;;;;;;12.60;5.40;;;;;;;25.32;47.20;100720.06;4954984;29;20134;-79
2022/05/16 09:50:14;;;;;;;11.38;5.75;;;;;;;25.31;45.75;100721.13;4954472;29;20054;-78
2022/05/16 09:52:45;;;;;;;8.02;4.90;;;;;;;26.30;44.38;100715.34;4951059;29;20044;-78
2022/05/16 09:55:15;;;;;;;15.93;5.20;;;;;;;26.08;44.30;100724.31;4953845;29;20550;-78
2022/05/16 09:57:48;;;;;;;14.40;5.50;;;;;;;25.68;43.88;100718.59;4955900;29;20082;-78
2022/05/16 10:00:23;;;;;;;11.18;4.90;;;;;;;25.86;44.74;100717.44;4950638;28;20074;-78
2022/05/16 10:03:02;;;;;;;10.15;5.30;;;;;;;25.96;45.02;100721.00;4955194;28;20059;-79
2022/05/16 10:05:31;;;;;;;10.85;5.43;;;;;;;25.89;42.87;100715.03;4957121;28;20047;-79
2022/05/16 10:08:04;;;;;;;11.68;5.60;;;;;;;26.29;43.14;100721.78;4956955;28;20458;-80
2022/05/16 10:10:36;;;;;;;9.60;5.70;;;;;;;26.48;43.25;100732.91;4956023;28;20128;-80
2022/05/16 10:13:03;;;;;;;8.85;5.05;;;;;;;26.28;42.02;100717.47;4954964;29;20443;-80
2022/05/16 10:15:32;;;;;;;11.40;4.75;;;;;;;26.08;42.11;100724.31;4945100;29;20055;-80
2022/05/16 10:18:01;;;;;;;10.43;5.20;;;;;;;25.94;42.72;100714.28;4944682;29;20111;-78
2022/05/16 10:20:37;;;;;;;10.23;5.32;;;;;;;26.48;41.55;100717.63;4941021;29;20065;-80
2022/05/16 10:23:07;;;;;;;12.48;4.60;;;;;;;26.46;40.66;100711.75;4951055;29;20120;-80
2022/05/16 10:25:37;;;;;;;9.10;5.10;;;;;;;26.49;40.57;100715.75;4953280;28;20135;-78
2022/05/16 10:28:08;;;;;;;8.15;4.55;;;;;;;26.62;40.82;100717.97;4957802;28;20055;-79
2022/05/16 10:33:27;;;;;;;6.63;4.43;;;;;;;27.13;41.84;100719.06;4954112;29;20043;-79
2022/05/16 10:35:59;;;;;;;8.07;4.72;;;;;;;27.44;40.32;100720.75;4954734;29;20090;-80
2022/05/16 10:38:34;;;;;;;8.88;4.75;;;;;;;27.55;39.54;100720.75;4956622;28;20138;-80
2022/05/16 10:41:03;;;;;;;5.90;4.55;;;;;;;27.47;40.05;100721.28;4957135;28;20044;-78
2022/05/16 10:43:39;;;;;;;7.68;4.68;;;;;;;27.82;39.58;100726.75;4956389;29;20470;-78
2022/05/16 10:46:11;;;;;;;12.85;5.18;;;;;;;27.81;39.57;100733.22;4955521;28;20402;-78
2022/05/16 10:48:45;;;;;;;10.55;5.10;;;;;;;27.64;40.57;100727.28;4949559;28;20051;-79
2022/05/16 10:51:15;;;;;;;7.10;4.78;;;;;;;27.49;39.94;100727.19;4949005;29;20375;-79
2022/05/16 10:53:51;;;;;;;8.15;4.75;;;;;;;27.85;39.89;100726.22;4952755;29;20048;-80
2022/05/16 10:56:34;;;;;;;10.30;4.40;;;;;;;27.71;40.23;100722.44;4955330;28;20051;-79
2022/05/16 10:59:15;;;;;;;9.13;4.75;;;;;;;27.83;41.26;100716.81;4952286;29;20078;-78
2022/05/16 11:01:49;;;;;;;9.70;4.43;;;;;;;28.23;39.91;100718.72;4954914;28;20058;-79
2022/05/16 11:04:41;;;;;;;9.35;4.60;;;;;;;28.17;38.64;100723.25;4949338;29;20051;-79
2022/05/16 11:07:17;;;;;;;12.50;5.63;;;;;;;28.50;38.61;100721.88;4951439;29;20133;-79
2022/05/16 11:09:52;;;;;;;8.43;4.50;;;;;;;28.42;39.20;100722.44;4944621;28;20071;-79
2022/05/16 11:12:23;;;;;;;10.50;4.90;;;;;;;28.47;39.11;100722.41;4951867;28;20062;-78
2022/05/16 11:14:57;;;;;;;10.25;5.63;;;;;;;27.79;40.46;100721.91;4955555;29;20055;-78
2022/05/16 11:17:31;;;;;;;12.02;5.60;;;;;;;27.53;41.51;100725.59;4962640;28;20057;-81
2022/05/16 11:20:07;;;;;;;11.98;5.38;;;;;;;26.92;42.73;100728.91;4959709;28;20119;-80
2022/05/16 11:22:39;;;;;;;12.77;5.13;;;;;;;26.68;49.07;100738.41;4960445;28;20058;-78
2022/05/16 11:25:11;;;;;;;26.08;6.78;;;;;;;25.32;59.71;100745.00;4961487;28;20046;-80
2022/05/16 11:28:00;;;;;;;17.70;6.65;;;;;;;23.94;64.90;100761.94;4961093;28;20170;-81
2022/05/16 11:30:42;;;;;;;22.80;7.50;;;;;;;23.37;70.62;100761.91;4964573;29;20047;-80
2022/05/16 11:33:23;;;;;;;17.65;7.28;;;;;;;23.53;68.03;100744.34;4964541;28;20470;-82
2022/05/16 11:35:53;;;;;;;12.80;7.15;;;;;;;23.75;70.86;100755.97;4966156;28;20070;-83
2022/05/16 11:38:38;;;;;;;12.00;6.65;;;;;;;23.94;66.22;100756.59;4967668;28;20051;-83
2022/05/16 11:41:26;;;;;;;11.80;6.45;;;;;;;24.09;62.35;100760.34;4957914;29;20039;-80
2022/05/16 11:44:16;;;;;;;8.45;5.80;;;;;;;24.22;64.15;100758.38;4960229;29;20142;-80
2022/05/16 11:46:49;;;;;;;14.20;6.15;;;;;;;24.30;58.39;100739.28;4943361;29;20091;-79
2022/05/16 11:49:27;;;;;;;11.10;5.95;;;;;;;24.57;63.33;100745.59;4943106;29;20134;-79
2022/05/16 11:52:05;;;;;;;13.90;7.20;;;;;;;24.73;66.87;100744.75;4955447;29;20051;-79
2022/05/16 11:54:38;;;;;;;11.13;6.68;;;;;;;24.79;69.56;100746.44;4959671;29;20055;-77
2022/05/16 12:02:52;;;;;;;13.50;6.75;;;;;;;24.77;63.36;100745.88;4961598;29;20051;-80
2022/05/16 12:05:39;;;;;;;18.10;7.55;;;;;;;24.75;63.73;100742.63;4966898;28;20134;-80